createdAt,value
2017-11-16T00:02:21.286Z,1.41
2017-11-16T00:04:55.383Z,1.27
2017-11-16T00:07:26.974Z,1.34
2017-11-16T00:12:30.740Z,1.37
2017-11-16T00:15:01.405Z,1.38
2017-11-16T00:17:32.590Z,1.33
2017-11-16T00:20:06.924Z,1.31
2017-11-16T00:22:37.385Z,1.31
2017-11-16T00:25:09.830Z,1.33
2017-11-16T00:27:42.216Z,1.34
2017-11-16T00:33:05.167Z,1.27
2017-11-16T00:35:36.911Z,1.25
2017-11-16T00:40:42.174Z,1.11
2017-11-16T00:43:12.791Z,1.12
2017-11-16T00:45:43.198Z,1.09
2017-11-16T00:48:14.422Z,1.16
2017-11-16T00:50:44.634Z,1.25
2017-11-16T00:53:14.537Z,1.29
2017-11-16T00:55:46.540Z,1.30
2017-11-16T00:58:16.756Z,1.17
2017-11-16T01:00:47.148Z,1.10
2017-11-16T01:03:20.237Z,1.10
2017-11-16T01:05:50.575Z,1.14
2017-11-16T01:08:21.628Z,1.06
2017-11-16T01:10:52.390Z,0.99
2017-11-16T01:13:22.687Z,0.98
2017-11-16T01:15:53.423Z,1.06
2017-11-16T01:18:23.728Z,1.06
2017-11-16T01:23:28.459Z,1.06
2017-11-16T01:28:32.656Z,1.07
2017-11-16T01:33:36.749Z,1.02
2017-11-16T01:36:08.585Z,0.97
2017-11-16T01:38:38.668Z,0.79
2017-11-16T01:41:11.297Z,0.72
2017-11-16T01:43:40.984Z,0.81
2017-11-16T01:48:45.760Z,0.71
2017-11-16T01:51:16.268Z,0.75
2017-11-16T01:53:46.709Z,0.81
2017-11-16T01:56:18.081Z,0.86
2017-11-16T01:58:52.706Z,0.89
2017-11-16T02:01:24.149Z,0.92
2017-11-16T02:03:54.192Z,0.98
2017-11-16T02:06:25.814Z,0.94
2017-11-16T02:14:07.502Z,0.99
2017-11-16T02:16:37.650Z,0.84
2017-11-16T02:19:08.583Z,0.92
2017-11-16T02:26:45.291Z,0.99
2017-11-16T02:29:14.931Z,0.78
2017-11-16T02:45:08.081Z,0.93
2017-11-16T03:03:24.722Z,0.70
2017-11-16T03:33:12.771Z,0.74
2017-11-16T03:43:26.854Z,0.84
2017-11-16T04:16:23.862Z,0.69
2017-11-16T04:24:03.330Z,0.54
2017-11-16T04:26:34.186Z,0.47
2017-11-16T04:31:40.881Z,0.34
2017-11-16T04:34:10.678Z,0.18
2017-11-16T04:36:40.829Z,0.26
2017-11-16T04:41:45.434Z,0.45
2017-11-16T04:46:59.761Z,0.45
2017-11-16T04:54:40.271Z,0.48
2017-11-16T04:59:47.739Z,0.56
2017-11-16T05:02:17.652Z,0.57
2017-11-16T05:04:48.017Z,0.60
2017-11-16T05:07:18.714Z,0.66
2017-11-16T05:09:49.401Z,0.67
2017-11-16T05:12:20.843Z,0.67
2017-11-16T05:20:09.684Z,0.71
2017-11-16T05:22:40.785Z,0.76
2017-11-16T05:25:11.343Z,0.85
2017-11-16T05:30:20.321Z,0.43
2017-11-16T05:35:37.937Z,0.48
2017-11-16T05:40:43.204Z,0.45
2017-11-16T05:46:00.970Z,0.39
2017-11-16T05:48:33.106Z,0.46
2017-11-16T05:51:03.855Z,0.51
2017-11-16T05:53:33.899Z,0.52
2017-11-16T05:56:05.144Z,0.61
2017-11-16T05:58:35.286Z,0.65
2017-11-16T06:01:05.282Z,0.65
2017-11-16T06:03:36.316Z,0.60
2017-11-16T06:06:08.261Z,0.63
2017-11-16T06:08:38.552Z,0.72
2017-11-16T06:11:08.753Z,0.94
2017-11-16T06:13:41.535Z,0.86
2017-11-16T06:16:13.504Z,0.87
2017-11-16T06:18:43.507Z,0.93
2017-11-16T06:21:13.893Z,0.84
2017-11-16T06:26:23.188Z,0.85
2017-11-16T06:28:53.088Z,0.91
2017-11-16T06:31:22.863Z,1.00
2017-11-16T06:33:53.558Z,1.11
2017-11-16T06:36:23.755Z,1.16
2017-11-16T06:38:53.521Z,1.23
2017-11-16T06:41:23.270Z,1.18
2017-11-16T06:43:53.290Z,1.12
2017-11-16T06:46:37.244Z,1.16
2017-11-16T06:49:11.000Z,1.42
2017-11-16T06:51:41.239Z,1.62
2017-11-16T06:54:12.710Z,1.64
2017-11-16T06:56:43.952Z,1.50
2017-11-16T06:59:14.835Z,1.61
2017-11-16T07:01:44.919Z,1.70
2017-11-16T07:04:20.131Z,1.51
2017-11-16T07:06:54.051Z,1.54
2017-11-16T07:09:25.534Z,1.75
2017-11-16T07:12:03.105Z,1.78
2017-11-16T07:14:40.262Z,1.82
2017-11-16T07:17:12.336Z,1.91
2017-11-16T07:19:43.485Z,1.91
2017-11-16T07:22:13.444Z,1.82
2017-11-16T07:24:44.665Z,1.77
2017-11-16T07:27:16.227Z,1.94
2017-11-16T07:29:46.096Z,1.92
2017-11-16T07:32:19.692Z,2.01
2017-11-16T07:34:49.731Z,2.00
2017-11-16T07:37:19.649Z,2.08
2017-11-16T07:39:49.441Z,2.26
2017-11-16T07:42:19.340Z,2.28
2017-11-16T07:44:49.226Z,2.26
2017-11-16T07:47:19.060Z,2.32
2017-11-16T07:49:48.840Z,2.47
2017-11-16T07:52:18.690Z,2.55
2017-11-16T07:54:48.375Z,2.78
2017-11-16T07:57:18.062Z,2.85
2017-11-16T08:02:31.942Z,2.99
2017-11-16T08:05:01.865Z,2.99
2017-11-16T08:07:31.847Z,3.16
2017-11-16T08:10:01.766Z,3.07
2017-11-16T08:12:31.653Z,3.01
2017-11-16T08:15:01.809Z,3.35
2017-11-16T08:17:33.689Z,3.17
2017-11-16T08:20:03.594Z,3.07
2017-11-16T08:22:33.550Z,3.18
2017-11-16T08:25:03.555Z,3.11
2017-11-16T08:27:33.414Z,3.25
2017-11-16T08:30:03.473Z,3.45
2017-11-16T08:32:33.666Z,3.88
2017-11-16T08:35:03.573Z,3.81
2017-11-16T08:37:33.546Z,4.04
2017-11-16T08:40:03.552Z,4.31
2017-11-16T08:42:33.874Z,4.38
2017-11-16T08:45:07.397Z,4.53
2017-11-16T08:47:38.138Z,4.54
2017-11-16T08:50:08.495Z,4.86
2017-11-16T08:52:38.184Z,5.20
2017-11-16T08:55:08.350Z,5.20
2017-11-16T08:57:38.358Z,5.39
2017-11-16T09:00:09.557Z,5.29
2017-11-16T09:02:39.249Z,5.16
2017-11-16T09:05:09.061Z,5.03
2017-11-16T09:07:38.980Z,4.98
2017-11-16T09:10:11.442Z,4.74
2017-11-16T09:12:41.799Z,4.71
2017-11-16T09:15:11.352Z,4.85
2017-11-16T09:17:41.216Z,4.94
2017-11-16T09:20:12.017Z,5.20
2017-11-16T09:22:42.080Z,5.47
2017-11-16T09:25:12.088Z,5.70
2017-11-16T09:27:42.369Z,5.52
2017-11-16T09:30:12.156Z,5.82
2017-11-16T09:32:43.129Z,5.81
2017-11-16T09:35:13.615Z,5.85
2017-11-16T09:37:43.321Z,6.10
2017-11-16T09:40:14.571Z,6.10
2017-11-16T09:42:44.573Z,5.82
2017-11-16T09:45:14.772Z,6.29
2017-11-16T09:47:44.594Z,6.24
2017-11-16T09:50:14.745Z,6.23
2017-11-16T09:52:44.456Z,6.45
2017-11-16T09:55:14.551Z,6.31
2017-11-16T09:57:44.841Z,6.24
2017-11-16T10:00:16.890Z,6.36
2017-11-16T10:02:46.701Z,6.93
2017-11-16T10:05:17.361Z,6.93
2017-11-16T10:08:00.999Z,7.22
2017-11-16T10:10:35.147Z,7.54
2017-11-16T10:13:05.272Z,8.39
2017-11-16T10:15:35.121Z,10.06
2017-11-16T10:18:04.897Z,10.73
2017-11-16T10:20:34.846Z,10.19
2017-11-16T10:23:05.555Z,11.00
2017-11-16T10:25:35.597Z,11.50
2017-11-16T10:28:05.426Z,13.30
2017-11-16T10:30:35.265Z,14.69
2017-11-16T10:33:05.317Z,18.62
2017-11-16T10:35:34.717Z,17.73
2017-11-16T10:38:04.209Z,19.57
2017-11-16T10:40:34.112Z,19.56
2017-11-16T10:43:03.721Z,20.45
2017-11-16T10:45:33.833Z,20.15
2017-11-16T10:48:04.526Z,21.01
2017-11-16T10:50:35.038Z,22.36
2017-11-16T10:53:07.901Z,22.39
2017-11-16T10:55:38.567Z,22.82
2017-11-16T10:58:08.320Z,22.30
2017-11-16T11:00:38.232Z,23.33
2017-11-16T11:03:09.462Z,22.58
2017-11-16T11:05:39.215Z,23.68
2017-11-16T11:08:09.384Z,23.81
2017-11-16T11:10:40.495Z,23.70
2017-11-16T11:13:11.078Z,22.53
2017-11-16T11:15:41.669Z,23.08
2017-11-16T11:18:12.644Z,23.34
2017-11-16T11:20:43.852Z,21.42
2017-11-16T11:23:13.463Z,21.24
2017-11-16T11:25:47.530Z,21.83
2017-11-16T11:28:20.359Z,21.92
2017-11-16T11:30:50.303Z,21.20
2017-11-16T11:33:20.124Z,21.83
2017-11-16T11:35:49.864Z,22.06
2017-11-16T11:38:19.695Z,21.19
2017-11-16T11:40:49.316Z,21.51
2017-11-16T11:43:18.932Z,20.18
2017-11-16T11:45:49.267Z,20.52
2017-11-16T11:48:19.068Z,21.67
2017-11-16T11:50:48.945Z,21.73
2017-11-16T11:53:20.797Z,22.24
2017-11-16T11:55:50.743Z,21.66
2017-11-16T11:58:21.309Z,20.58
2017-11-16T12:00:51.005Z,21.63
2017-11-16T12:03:25.359Z,20.68
2017-11-16T12:05:56.660Z,21.99
2017-11-16T12:08:27.900Z,20.69
2017-11-16T12:10:57.564Z,20.46
2017-11-16T12:13:26.767Z,22.61
2017-11-16T12:15:56.493Z,20.01
2017-11-16T12:18:26.094Z,20.18
2017-11-16T12:20:55.772Z,18.67
2017-11-16T12:23:25.926Z,17.91
2017-11-16T12:25:55.511Z,19.03
2017-11-16T12:28:25.238Z,20.30
2017-11-16T12:30:54.517Z,20.89
2017-11-16T12:33:27.983Z,22.78
2017-11-16T12:36:00.903Z,22.69
2017-11-16T12:38:31.716Z,22.12
2017-11-16T12:41:01.426Z,20.51
2017-11-16T12:43:31.915Z,17.06
2017-11-16T12:46:01.217Z,17.50
2017-11-16T12:48:30.985Z,15.88
2017-11-16T12:51:00.665Z,14.85
2017-11-16T12:53:47.603Z,16.32
2017-11-16T12:56:29.862Z,16.21
2017-11-16T12:59:00.435Z,17.51
2017-11-16T13:01:30.268Z,19.53
2017-11-16T13:04:00.074Z,19.79
2017-11-16T13:06:29.791Z,19.22
2017-11-16T13:09:01.245Z,21.12
2017-11-16T13:11:32.921Z,21.36
2017-11-16T13:14:05.851Z,20.47
2017-11-16T13:16:36.602Z,20.11
2017-11-16T13:19:06.259Z,19.84
2017-11-16T13:21:36.463Z,17.03
2017-11-16T13:24:16.291Z,15.38
2017-11-16T13:27:01.373Z,13.47
2017-11-16T13:29:31.829Z,12.18
2017-11-16T13:32:02.304Z,10.52
2017-11-16T13:34:32.825Z,10.01
2017-11-16T13:37:03.622Z,9.35
2017-11-16T13:39:35.402Z,8.50
2017-11-16T13:42:05.229Z,8.00
2017-11-16T13:44:35.109Z,7.32
2017-11-16T13:47:05.524Z,7.57
2017-11-16T13:49:35.406Z,7.31
2017-11-16T13:52:06.197Z,7.35
2017-11-16T13:54:35.840Z,7.24
2017-11-16T13:57:05.784Z,7.15
2017-11-16T13:59:35.937Z,6.70
2017-11-16T14:02:06.805Z,6.67
2017-11-16T14:04:37.670Z,6.88
2017-11-16T14:07:08.510Z,6.68
2017-11-16T14:09:38.510Z,6.61
2017-11-16T14:12:09.612Z,6.54
2017-11-16T14:14:43.855Z,6.39
2017-11-16T14:17:13.832Z,6.03
2017-11-16T14:19:45.689Z,6.03
2017-11-16T14:22:16.984Z,6.18
2017-11-16T14:24:46.515Z,6.22
2017-11-16T14:27:17.117Z,6.02
2017-11-16T14:29:52.324Z,5.94
2017-11-16T14:32:22.370Z,5.80
2017-11-16T14:34:52.382Z,5.79
2017-11-16T14:37:23.573Z,5.50
2017-11-16T14:39:53.896Z,5.68
2017-11-16T14:42:23.655Z,5.63
2017-11-16T14:44:53.706Z,5.55
2017-11-16T14:47:23.678Z,5.53
2017-11-16T14:49:53.585Z,5.51
2017-11-16T14:52:23.512Z,5.47
2017-11-16T14:54:53.802Z,5.44
2017-11-16T14:57:24.820Z,5.40
2017-11-16T14:59:55.042Z,5.32
2017-11-16T15:02:25.782Z,5.26
2017-11-16T15:04:55.882Z,5.24
2017-11-16T15:07:25.733Z,5.24
2017-11-16T15:09:57.310Z,5.06
2017-11-16T15:12:27.805Z,5.01
2017-11-16T15:14:58.155Z,5.06
2017-11-16T15:17:28.360Z,5.12
2017-11-16T15:19:59.031Z,5.01
2017-11-16T15:22:29.248Z,4.86
2017-11-16T15:24:59.595Z,4.88
2017-11-16T15:27:31.669Z,4.72
2017-11-16T15:30:01.560Z,4.92
2017-11-16T15:32:31.487Z,4.67
2017-11-16T15:35:01.899Z,4.72
2017-11-16T15:37:32.412Z,4.68
2017-11-16T15:40:03.658Z,4.76
2017-11-16T15:42:33.639Z,4.76
2017-11-16T15:45:07.380Z,4.75
2017-11-16T15:47:37.499Z,4.71
2017-11-16T15:50:07.829Z,4.59
2017-11-16T15:52:37.658Z,4.52
2017-11-16T15:55:08.925Z,4.54
2017-11-16T15:57:40.025Z,4.71
2017-11-16T16:00:10.268Z,4.66
2017-11-16T16:02:40.153Z,4.53
2017-11-16T16:05:11.168Z,4.50
2017-11-16T16:07:41.063Z,4.51
2017-11-16T16:10:11.428Z,4.50
2017-11-16T16:12:41.282Z,4.51
2017-11-16T16:15:11.220Z,4.40
2017-11-16T16:17:41.259Z,4.35
2017-11-16T16:20:11.250Z,4.46
2017-11-16T16:22:41.362Z,4.37
2017-11-16T16:25:11.276Z,4.31
2017-11-16T16:27:41.180Z,4.20
2017-11-16T16:30:11.062Z,4.40
2017-11-16T16:32:40.614Z,4.52
2017-11-16T16:35:10.772Z,4.44
2017-11-16T16:37:41.692Z,4.45
2017-11-16T16:40:12.225Z,4.27
2017-11-16T16:42:42.245Z,4.28
2017-11-16T16:45:12.325Z,4.14
2017-11-16T16:47:42.139Z,4.19
2017-11-16T16:50:12.120Z,4.19
2017-11-16T16:52:42.512Z,4.32
2017-11-16T16:55:12.770Z,4.33
2017-11-16T16:57:42.720Z,4.32
2017-11-16T17:00:12.582Z,4.30
2017-11-16T17:02:43.308Z,4.26
2017-11-16T17:05:13.319Z,4.31
2017-11-16T17:07:43.413Z,4.32
2017-11-16T17:10:13.194Z,4.35
2017-11-16T17:12:43.147Z,4.30
2017-11-16T17:15:12.673Z,4.24
2017-11-16T17:17:42.514Z,4.18
2017-11-16T17:20:12.913Z,4.26
2017-11-16T17:22:43.858Z,4.22
2017-11-16T17:25:13.878Z,4.31
2017-11-16T17:27:46.143Z,4.30
2017-11-16T17:30:16.641Z,4.29
2017-11-16T17:32:46.464Z,4.24
2017-11-16T17:35:16.397Z,4.40
2017-11-16T17:37:46.403Z,4.35
2017-11-16T17:40:16.296Z,4.31
2017-11-16T17:42:46.079Z,4.37
2017-11-16T17:45:15.686Z,4.32
2017-11-16T17:47:49.442Z,4.26
2017-11-16T17:50:19.330Z,4.16
2017-11-16T17:52:49.134Z,4.17
2017-11-16T17:55:18.907Z,4.07
2017-11-16T17:57:48.412Z,4.11
2017-11-16T18:00:18.141Z,4.08
2017-11-16T18:02:49.541Z,4.10
2017-11-16T18:05:19.138Z,4.20
2017-11-16T18:07:48.898Z,4.29
2017-11-16T18:10:36.170Z,4.44
2017-11-16T18:24:35.396Z,4.18
2017-11-16T18:30:34.595Z,4.02
2017-11-16T18:35:55.836Z,3.96
2017-11-16T18:38:35.455Z,3.96
2017-11-16T18:41:06.834Z,3.97
2017-11-16T18:43:36.644Z,3.81
2017-11-16T18:46:06.613Z,3.96
2017-11-16T18:48:36.534Z,4.00
2017-11-16T18:51:06.534Z,3.90
2017-11-16T18:53:37.239Z,3.90
2017-11-16T18:56:07.138Z,3.80
2017-11-16T18:58:37.020Z,3.71
2017-11-16T19:01:07.216Z,3.61
2017-11-16T19:03:39.219Z,3.72
2017-11-16T19:06:10.160Z,3.68
2017-11-16T19:08:40.065Z,3.65
2017-11-16T19:11:10.090Z,3.66
2017-11-16T19:13:39.916Z,3.67
2017-11-16T19:16:09.989Z,3.67
2017-11-16T19:18:39.900Z,3.66
2017-11-16T19:21:09.867Z,3.68
2017-11-16T19:23:39.591Z,3.68
2017-11-16T19:26:09.680Z,3.65
2017-11-16T19:28:39.538Z,3.59
2017-11-16T19:31:09.515Z,3.63
2017-11-16T19:33:39.637Z,3.62
2017-11-16T19:36:09.791Z,3.64
2017-11-16T19:38:41.214Z,3.61
2017-11-16T19:41:13.346Z,3.60
2017-11-16T19:48:56.942Z,3.50
2017-11-16T19:51:29.153Z,3.51
2017-11-16T19:53:59.214Z,3.54
2017-11-16T19:56:29.395Z,3.49
2017-11-16T19:58:59.965Z,3.52
2017-11-16T20:04:05.358Z,3.61
2017-11-16T20:06:35.860Z,3.56
2017-11-16T20:09:05.603Z,3.39
2017-11-16T20:11:35.744Z,3.37
2017-11-16T20:14:05.963Z,3.36
2017-11-16T20:16:35.943Z,3.39
2017-11-16T20:19:07.109Z,3.44
2017-11-16T20:21:36.953Z,3.46
2017-11-16T20:24:07.013Z,3.39
2017-11-16T20:26:38.051Z,3.27
2017-11-16T20:29:09.016Z,3.23
2017-11-16T20:31:39.432Z,3.17
2017-11-16T20:34:10.167Z,3.20
2017-11-16T20:36:40.091Z,3.15
2017-11-16T20:42:49.198Z,3.18
2017-11-16T20:54:03.506Z,3.11
2017-11-16T20:56:33.415Z,3.16
2017-11-16T20:59:03.211Z,3.21
2017-11-16T21:01:38.054Z,3.14
2017-11-16T21:04:12.382Z,3.19
2017-11-16T21:09:33.377Z,3.15
2017-11-16T21:12:03.907Z,3.19
2017-11-16T21:27:12.290Z,3.05
2017-11-16T21:32:32.881Z,3.17
2017-11-16T21:35:11.121Z,3.23
2017-11-16T21:37:42.884Z,3.11
2017-11-16T21:42:48.532Z,3.06
2017-11-16T21:45:19.517Z,3.05
2017-11-16T21:47:50.474Z,3.00
2017-11-16T21:52:56.202Z,2.93
2017-11-16T21:55:26.898Z,2.88
2017-11-16T21:57:56.863Z,2.82
2017-11-16T22:00:26.625Z,2.84
2017-11-16T22:02:56.587Z,2.78
2017-11-16T22:05:26.924Z,2.81
2017-11-16T22:10:33.932Z,2.72
2017-11-16T22:13:04.858Z,2.78
2017-11-16T22:15:36.474Z,2.80
2017-11-16T22:18:06.827Z,2.78
2017-11-16T22:20:38.543Z,2.77
2017-11-16T22:23:08.623Z,2.80
2017-11-16T22:30:48.121Z,2.83
2017-11-16T22:33:20.566Z,2.93
2017-11-16T22:35:58.298Z,2.92
2017-11-16T22:38:28.976Z,2.88
2017-11-16T22:43:33.931Z,2.82
2017-11-16T22:48:42.405Z,2.80
2017-11-16T22:51:14.635Z,2.79
2017-11-16T22:53:45.371Z,2.76
2017-11-16T22:56:17.708Z,2.80
2017-11-16T23:01:33.172Z,2.70
2017-11-16T23:04:03.071Z,2.68
2017-11-16T23:06:33.776Z,2.69
2017-11-16T23:11:37.653Z,2.72
2017-11-16T23:14:09.081Z,2.73
2017-11-16T23:16:40.785Z,2.73
2017-11-16T23:19:10.875Z,2.66
2017-11-16T23:21:43.478Z,2.76
2017-11-16T23:26:47.919Z,2.69
2017-11-16T23:29:18.071Z,2.61
2017-11-16T23:31:52.185Z,2.61
2017-11-16T23:34:23.922Z,2.66
2017-11-16T23:36:55.796Z,2.73
2017-11-16T23:55:09.491Z,2.77
2017-11-16T23:57:39.876Z,2.61
